Time;durP1;ratioP1;P1;durP2;ratioP2;P2;SDS_P1;SDS_P2;PMS_P1;PMS_P2;Temp;Humidity;BMP_temperature;BMP_pressure;BME280_temperature;BME280_humidity;BME280_pressure;Samples;Min_cycle;Max_cycle;Signal;HPM_P1;HPM_P2
2022/08/07 00:01:44;;;;;;;;;;;16.50;99.90;;;;;;5030732;28;19913;-86
2022/08/07 00:04:10;;;;;;;;;;;16.40;99.90;;;;;;5030699;28;19912;-86
2022/08/07 00:06:36;;;;;;;;;;;16.40;99.90;;;;;;5031711;28;19909;-86
2022/08/07 00:09:02;;;;;;;;;;;16.40;99.90;;;;;;5015008;28;19920;-87
2022/08/07 00:11:28;;;;;;;;;;;16.30;99.90;;;;;;5016498;28;19959;-86
2022/08/07 00:13:53;;;;;;;;;;;16.30;99.90;;;;;;5015324;28;19916;-88
2022/08/07 00:16:19;;;;;;;;;;;16.20;99.90;;;;;;5029403;28;19905;-85
2022/08/07 00:18:44;;;;;;;;;;;16.20;99.90;;;;;;5028427;28;19988;-83
2022/08/07 00:21:10;;;;;;;;;;;16.20;99.90;;;;;;5012610;28;19905;-86
2022/08/07 00:23:36;;;;;;;;;;;16.20;99.90;;;;;;5013184;28;19970;-86
2022/08/07 00:26:03;;;;;;;;;;;16.10;99.90;;;;;;5013096;28;19956;-85
2022/08/07 00:28:29;;;;;;;;;;;16.10;99.90;;;;;;5013074;28;19913;-87
2022/08/07 00:30:55;;;;;;;;;;;16.00;99.90;;;;;;5013801;28;20468;-84
2022/08/07 00:33:25;;;;;;;;;;;16.00;99.90;;;;;;5014711;28;19905;-86
2022/08/07 00:35:51;;;;;;;;;;;16.00;99.90;;;;;;5034293;28;20388;-85
2022/08/07 00:38:17;;;;;;;;;;;16.00;99.90;;;;;;5017173;28;19909;-86
2022/08/07 00:40:43;;;;;;;;;;;15.90;99.90;;;;;;5033444;28;19905;-87
2022/08/07 00:43:09;;;;;;;;;;;15.90;99.90;;;;;;5016559;28;19958;-87
2022/08/07 00:45:34;;;;;;;;;;;15.90;99.90;;;;;;5034114;28;19928;-88
2022/08/07 00:48:00;;;;;;;;;;;15.80;99.90;;;;;;5016698;28;20376;-86
2022/08/07 00:50:25;;;;;;;;;;;15.80;99.90;;;;;;5033222;28;19913;-88
2022/08/07 00:52:51;;;;;;;;;;;15.80;99.90;;;;;;5033336;28;19916;-87
2022/08/07 00:55:17;;;;;;;;;;;15.80;99.90;;;;;;5016632;28;19905;-87
2022/08/07 00:57:43;;;;;;;;;;;15.80;99.90;;;;;;5033930;28;19988;-87
2022/08/07 01:00:09;;;;;;;;;;;15.70;99.90;;;;;;5016793;28;19911;-89
2022/08/07 01:02:34;;;;;;;;;;;15.60;99.90;;;;;;5016759;28;20011;-88
2022/08/07 01:05:04;;;;;;;;;;;15.60;99.90;;;;;;5033684;28;19905;-88
2022/08/07 01:07:30;;;;;;;;;;;15.60;99.90;;;;;;5016447;28;19909;-87
2022/08/07 01:09:56;;;;;;;;;;;15.50;99.90;;;;;;5016734;28;20586;-87
2022/08/07 01:12:21;;;;;;;;;;;15.50;99.90;;;;;;5032523;28;20010;-87
2022/08/07 01:14:47;;;;;;;;;;;15.50;99.90;;;;;;5016429;28;19940;-87
2022/08/07 01:17:13;;;;;;;;;;;15.50;99.90;;;;;;5033334;28;20374;-87
2022/08/07 01:19:38;;;;;;;;;;;15.40;99.90;;;;;;5033621;28;19909;-87
2022/08/07 01:22:04;;;;;;;;;;;15.40;99.90;;;;;;5015819;28;19905;-88
2022/08/07 01:24:30;;;;;;;;;;;15.40;99.90;;;;;;5032761;28;19905;-87
2022/08/07 01:26:57;;;;;;;;;;;15.40;99.90;;;;;;5016202;28;19921;-86
2022/08/07 01:29:24;;;;;;;;;;;15.30;99.90;;;;;;5033565;28;20023;-88
2022/08/07 01:31:50;;;;;;;;;;;15.30;99.90;;;;;;5015726;28;19912;-87
2022/08/07 01:34:16;;;;;;;;;;;15.40;99.90;;;;;;5015110;28;20372;-86
2022/08/07 01:36:42;;;;;;;;;;;15.40;99.90;;;;;;5062618;23;19931;-58
2022/08/07 01:39:08;;;;;;;;;;;15.40;99.90;;;;;;5051761;28;19905;-56
2022/08/07 01:41:33;;;;;;;;;;;15.40;99.90;;;;;;5051866;28;19911;-58
2022/08/07 01:43:59;;;;;;;;;;;15.40;99.90;;;;;;5051983;28;20599;-58
2022/08/07 01:46:25;;;;;;;;;;;15.40;99.90;;;;;;5051675;28;20299;-58
2022/08/07 01:48:50;;;;;;;;;;;15.40;99.90;;;;;;5051588;28;19917;-58
2022/08/07 01:51:17;;;;;;;;;;;15.50;99.90;;;;;;5051666;28;19908;-58
2022/08/07 01:53:46;;;;;;;;;;;15.50;99.90;;;;;;5051638;28;20017;-58
2022/08/07 01:56:14;;;;;;;;;;;15.50;99.90;;;;;;5051472;28;19915;-58
2022/08/07 01:58:51;;;;;;;;;;;15.50;99.90;;;;;;5051596;28;20248;-58
2022/08/07 02:01:24;;;;;;;;;;;15.50;99.90;;;;;;5051546;28;19916;-58
2022/08/07 02:03:56;;;;;;;;;;;15.50;99.90;;;;;;5051181;28;20379;-58
2022/08/07 02:06:22;;;;;;;;;;;15.40;99.90;;;;;;5051336;28;19912;-58
2022/08/07 02:08:48;;;;;;;;;;;15.30;99.90;;;;;;5051564;28;19916;-58
2022/08/07 02:11:13;;;;;;;;;;;15.20;99.90;;;;;;5051334;28;20482;-58
2022/08/07 02:13:41;;;;;;;;;;;15.20;99.90;;;;;;5050962;28;19986;-57
2022/08/07 02:16:07;;;;;;;;;;;15.20;99.90;;;;;;5050915;28;20026;-58
2022/08/07 02:18:35;;;;;;;;;;;15.30;99.90;;;;;;5051246;28;19972;-58
2022/08/07 02:21:02;;;;;;;;;;;15.20;99.90;;;;;;5051097;28;19912;-58
2022/08/07 02:23:29;;;;;;;;;;;15.30;99.90;;;;;;5051035;28;20383;-58
2022/08/07 02:25:56;;;;;;;;;;;15.30;99.90;;;;;;5050649;28;19948;-58
2022/08/07 02:28:22;;;;;;;;;;;15.30;99.90;;;;;;5050857;28;19999;-58
2022/08/07 02:30:49;;;;;;;;;;;15.20;99.90;;;;;;5051034;28;19915;-58
2022/08/07 02:33:16;;;;;;;;;;;15.20;99.90;;;;;;5051088;28;20007;-58
2022/08/07 02:35:43;;;;;;;;;;;15.20;99.90;;;;;;5050346;28;19975;-59
2022/08/07 02:38:09;;;;;;;;;;;15.10;99.90;;;;;;5050785;28;19955;-58
2022/08/07 02:40:37;;;;;;;;;;;14.90;99.90;;;;;;5050899;28;19927;-58
2022/08/07 02:43:04;;;;;;;;;;;14.90;99.90;;;;;;5050615;28;19939;-58
2022/08/07 02:45:30;;;;;;;;;;;14.80;99.90;;;;;;5050353;28;19909;-58
2022/08/07 02:47:56;;;;;;;;;;;14.80;99.90;;;;;;5050759;28;19950;-58
2022/08/07 02:50:21;;;;;;;;;;;14.70;99.90;;;;;;5050533;28;19926;-58
2022/08/07 02:52:58;;;;;;;;;;;14.60;99.90;;;;;;5050596;28;19977;-58
2022/08/07 02:55:28;;;;;;;;;;;14.70;99.90;;;;;;5049987;28;19915;-58
2022/08/07 02:57:57;;;;;;;;;;;14.70;99.90;;;;;;5050235;28;19913;-58
2022/08/07 03:00:25;;;;;;;;;;;14.70;99.90;;;;;;5050512;28;19904;-58
2022/08/07 03:02:51;;;;;;;;;;;14.60;99.90;;;;;;5050388;28;19922;-59
2022/08/07 03:05:17;;;;;;;;;;;14.60;99.90;;;;;;5049927;28;19915;-59
2022/08/07 03:07:44;;;;;;;;;;;14.70;99.90;;;;;;5050290;28;19905;-58
2022/08/07 03:10:09;;;;;;;;;;;14.70;99.90;;;;;;5050296;28;19916;-59
2022/08/07 03:12:36;;;;;;;;;;;14.70;99.90;;;;;;5050394;28;19928;-58
2022/08/07 03:15:02;;;;;;;;;;;14.70;99.90;;;;;;5049767;28;19908;-58
2022/08/07 03:17:28;;;;;;;;;;;14.60;99.90;;;;;;5050020;28;19909;-58
2022/08/07 03:19:53;;;;;;;;;;;14.60;99.90;;;;;;5050330;28;19919;-58
2022/08/07 03:22:20;;;;;;;;;;;14.60;99.90;;;;;;5050033;28;19912;-58
2022/08/07 03:24:45;;;;;;;;;;;14.50;99.90;;;;;;5049694;28;19938;-58
2022/08/07 03:27:12;;;;;;;;;;;14.40;99.90;;;;;;5049929;28;20692;-58
2022/08/07 03:29:39;;;;;;;;;;;14.20;99.90;;;;;;5049995;28;19921;-58
2022/08/07 03:32:06;;;;;;;;;;;14.20;99.90;;;;;;5050285;28;19920;-58
2022/08/07 03:34:33;;;;;;;;;;;14.20;99.90;;;;;;5050020;28;19948;-58
2022/08/07 03:37:00;;;;;;;;;;;14.20;99.90;;;;;;5061164;28;19916;-59
2022/08/07 03:39:27;;;;;;;;;;;14.20;99.90;;;;;;5069806;28;19905;-58
2022/08/07 03:41:52;;;;;;;;;;;14.20;99.90;;;;;;5069955;28;19912;-58
2022/08/07 03:44:18;;;;;;;;;;;14.10;99.90;;;;;;5069873;28;19974;-58
2022/08/07 03:46:44;;;;;;;;;;;14.10;99.90;;;;;;5069660;28;20413;-58
2022/08/07 03:49:09;;;;;;;;;;;14.10;99.90;;;;;;5069494;28;19919;-58
2022/08/07 03:51:35;;;;;;;;;;;14.20;99.90;;;;;;5069611;28;19916;-58
2022/08/07 03:54:01;;;;;;;;;;;14.20;99.90;;;;;;5069683;28;19950;-59
2022/08/07 03:56:29;;;;;;;;;;;14.20;99.90;;;;;;5069309;28;19908;-58
2022/08/07 03:58:55;;;;;;;;;;;14.20;99.90;;;;;;5068210;28;19916;-58
2022/08/07 04:01:21;;;;;;;;;;;14.20;99.90;;;;;;5069718;28;19908;-58
2022/08/07 04:03:48;;;;;;;;;;;14.10;99.90;;;;;;5069724;28;19954;-58
2022/08/07 04:06:13;;;;;;;;;;;14.20;99.90;;;;;;5069114;28;20352;-58
2022/08/07 04:08:40;;;;;;;;;;;14.20;99.90;;;;;;5069726;28;19966;-58
2022/08/07 04:11:06;;;;;;;;;;;14.20;99.90;;;;;;5073356;28;19991;-58
2022/08/07 04:13:33;;;;;;;;;;;14.10;99.90;;;;;;5073475;28;19954;-58
2022/08/07 04:15:58;;;;;;;;;;;14.00;99.90;;;;;;5073055;28;19904;-58
2022/08/07 04:18:24;;;;;;;;;;;13.80;99.90;;;;;;5073400;28;19912;-59
2022/08/07 04:20:49;;;;;;;;;;;13.80;99.90;;;;;;5073085;28;19949;-58
2022/08/07 04:23:15;;;;;;;;;;;13.90;99.90;;;;;;5073385;28;19958;-58
2022/08/07 04:25:41;;;;;;;;;;;13.70;99.90;;;;;;5072725;28;20351;-58
2022/08/07 04:28:07;;;;;;;;;;;13.80;99.90;;;;;;5073177;28;19941;-58
2022/08/07 04:30:34;;;;;;;;;;;13.90;99.90;;;;;;5073101;28;19916;-57
2022/08/07 04:32:59;;;;;;;;;;;13.90;99.90;;;;;;5073016;28;19908;-59
2022/08/07 04:35:26;;;;;;;;;;;13.90;99.90;;;;;;5072517;28;19908;-57
2022/08/07 04:37:51;;;;;;;;;;;13.80;99.90;;;;;;5051382;28;19913;-57
2022/08/07 04:40:17;;;;;;;;;;;13.80;99.90;;;;;;5052887;28;20531;-57
2022/08/07 04:42:43;;;;;;;;;;;14.00;99.90;;;;;;5053048;28;19951;-57
2022/08/07 04:45:10;;;;;;;;;;;14.00;99.90;;;;;;5052556;28;20413;-57
2022/08/07 04:48:02;;;;;;;;;;;14.00;99.90;;;;;;5052898;28;19909;-57
2022/08/07 04:50:27;;;;;;;;;;;14.00;99.90;;;;;;5052774;28;20275;-57
2022/08/07 04:52:56;;;;;;;;;;;14.00;99.90;;;;;;5052647;28;19915;-57
2022/08/07 04:55:30;;;;;;;;;;;14.10;99.90;;;;;;5052419;28;19909;-57
2022/08/07 04:57:59;;;;;;;;;;;14.20;99.90;;;;;;5052630;28;19904;-57
2022/08/07 05:00:34;;;;;;;;;;;14.30;99.90;;;;;;5052484;28;20287;-58
2022/08/07 05:03:29;;;;;;;;;;;14.40;99.90;;;;;;5052419;28;20411;-58
2022/08/07 05:06:21;;;;;;;;;;;14.40;99.90;;;;;;5034578;28;20117;-57
2022/08/07 05:08:46;;;;;;;;;;;14.40;99.90;;;;;;5048146;28;19923;-57
2022/08/07 05:11:13;;;;;;;;;;;14.50;99.90;;;;;;5052442;28;19908;-57
2022/08/07 05:13:45;;;;;;;;;;;14.50;99.90;;;;;;5052142;28;19909;-57
2022/08/07 05:16:13;;;;;;;;;;;14.50;99.90;;;;;;5052353;28;19911;-57
2022/08/07 05:18:46;;;;;;;;;;;14.60;99.90;;;;;;5051984;28;19952;-57
2022/08/07 05:21:13;;;;;;;;;;;14.70;99.90;;;;;;5051493;28;19931;-57
2022/08/07 05:23:40;;;;;;;;;;;14.80;99.90;;;;;;5052156;28;19912;-59
2022/08/07 05:26:09;;;;;;;;;;;14.70;99.90;;;;;;5051891;28;19931;-58
2022/08/07 05:28:35;;;;;;;;;;;14.70;99.90;;;;;;5051617;28;19954;-57
2022/08/07 05:31:02;;;;;;;;;;;14.80;99.90;;;;;;5051984;28;19916;-57
2022/08/07 05:33:29;;;;;;;;;;;14.80;99.90;;;;;;5051925;28;19999;-58
2022/08/07 05:35:55;;;;;;;;;;;14.80;99.90;;;;;;5050785;28;20287;-58
2022/08/07 05:38:21;;;;;;;;;;;14.90;99.90;;;;;;5052034;28;19912;-58
2022/08/07 05:40:47;;;;;;;;;;;15.00;99.90;;;;;;5051913;28;19912;-57
2022/08/07 05:43:13;;;;;;;;;;;15.10;99.90;;;;;;5051495;28;20372;-58
2022/08/07 05:45:39;;;;;;;;;;;15.10;99.90;;;;;;5051601;28;19909;-59
2022/08/07 05:48:05;;;;;;;;;;;15.30;99.90;;;;;;5051424;28;19909;-59
2022/08/07 05:50:33;;;;;;;;;;;15.40;99.90;;;;;;5051478;28;20283;-57
2022/08/07 05:52:59;;;;;;;;;;;15.40;99.90;;;;;;5051581;28;19990;-57
2022/08/07 05:55:25;;;;;;;;;;;15.50;99.90;;;;;;5051248;28;19909;-57
2022/08/07 05:57:51;;;;;;;;;;;15.50;99.90;;;;;;5051221;28;20402;-59
2022/08/07 06:00:17;;;;;;;;;;;15.60;99.90;;;;;;5051593;28;19943;-58
2022/08/07 06:02:46;;;;;;;;;;;15.70;99.90;;;;;;5051417;28;19936;-58
2022/08/07 06:05:12;;;;;;;;;;;15.80;99.90;;;;;;5051342;28;19999;-58
2022/08/07 06:07:38;;;;;;;;;;;15.90;99.90;;;;;;5051212;28;20481;-58
2022/08/07 06:10:04;;;;;;;;;;;15.90;99.90;;;;;;5051185;28;20007;-58
2022/08/07 06:12:30;;;;;;;;;;;16.00;99.90;;;;;;5051114;28;19961;-59
2022/08/07 06:14:56;;;;;;;;;;;16.10;99.90;;;;;;5050889;28;20006;-57
2022/08/07 06:17:22;;;;;;;;;;;16.20;99.90;;;;;;5051023;28;19909;-59
2022/08/07 06:19:48;;;;;;;;;;;16.30;99.90;;;;;;5051077;28;19915;-57
2022/08/07 06:22:15;;;;;;;;;;;16.40;99.90;;;;;;5051117;28;19904;-57
2022/08/07 06:24:40;;;;;;;;;;;16.40;99.90;;;;;;5050708;28;19912;-57
2022/08/07 06:27:06;;;;;;;;;;;16.40;99.90;;;;;;5050926;28;19905;-57
2022/08/07 06:29:33;;;;;;;;;;;16.40;99.90;;;;;;5050648;28;20683;-59
2022/08/07 06:31:58;;;;;;;;;;;16.50;99.90;;;;;;5049990;28;19944;-57
2022/08/07 06:34:24;;;;;;;;;;;16.60;99.90;;;;;;5050711;28;20006;-59
2022/08/07 06:36:50;;;;;;;;;;;16.80;99.90;;;;;;5050561;28;19920;-57
2022/08/07 06:39:15;;;;;;;;;;;16.80;99.90;;;;;;5050444;28;19912;-56
2022/08/07 06:41:44;;;;;;;;;;;17.00;99.90;;;;;;5050744;28;19908;-57
2022/08/07 06:44:10;;;;;;;;;;;17.10;99.90;;;;;;5050421;28;19905;-59
2022/08/07 06:46:36;;;;;;;;;;;17.30;99.90;;;;;;5050208;28;20314;-58
2022/08/07 06:49:02;;;;;;;;;;;17.40;99.90;;;;;;5050228;28;19925;-57
2022/08/07 06:51:30;;;;;;;;;;;17.50;99.90;;;;;;5050709;28;19963;-59
2022/08/07 06:54:02;;;;;;;;;;;17.50;99.90;;;;;;5050388;28;19971;-59
2022/08/07 06:56:42;;;;;;;;;;;17.50;99.90;;;;;;5050273;28;19956;-59
2022/08/07 06:59:12;;;;;;;;;;;17.60;99.90;;;;;;5050261;28;19915;-56
2022/08/07 07:01:38;;;;;;;;;;;17.70;99.90;;;;;;5050300;28;20371;-56
2022/08/07 07:04:04;;;;;;;;;;;17.60;99.90;;;;;;5050303;28;20295;-57
2022/08/07 07:06:33;;;;;;;;;;;17.70;99.90;;;;;;5048652;28;19911;-57
2022/08/07 07:09:34;;;;;;;;;;;18.00;99.90;;;;;;5049867;28;20283;-57
2022/08/07 07:12:03;;;;;;;;;;;18.10;99.90;;;;;;4968986;28;19914;-57
2022/08/07 07:14:31;;;;;;;;;;;18.10;99.90;;;;;;5034383;28;19988;-57
2022/08/07 07:16:59;;;;;;;;;;;18.10;99.90;;;;;;5049982;28;19909;-57
2022/08/07 07:19:28;;;;;;;;;;;18.10;99.90;;;;;;5050192;28;19916;-57
2022/08/07 07:21:54;;;;;;;;;;;18.20;99.90;;;;;;5049913;28;20394;-57
2022/08/07 07:24:20;;;;;;;;;;;18.20;99.90;;;;;;5049855;28;19940;-57
2022/08/07 07:26:46;;;;;;;;;;;18.20;99.90;;;;;;5050059;28;19915;-57
2022/08/07 07:29:12;;;;;;;;;;;18.20;99.90;;;;;;5054360;28;20104;-57
2022/08/07 07:31:43;;;;;;;;;;;18.20;99.90;;;;;;5049915;28;20438;-57
2022/08/07 07:34:10;;;;;;;;;;;18.30;99.90;;;;;;5052450;28;19935;-57
2022/08/07 07:36:37;;;;;;;;;;;18.40;99.90;;;;;;5069355;28;19959;-57
2022/08/07 07:39:03;;;;;;;;;;;18.60;99.90;;;;;;5078223;28;20371;-57
2022/08/07 07:41:31;;;;;;;;;;;18.70;99.90;;;;;;5082085;28;19908;-57
2022/08/07 07:43:57;;;;;;;;;;;18.90;99.90;;;;;;5080305;28;19912;-57
2022/08/07 07:46:24;;;;;;;;;;;18.90;99.90;;;;;;5083808;28;20036;-57
2022/08/07 07:48:50;;;;;;;;;;;19.10;99.90;;;;;;5063439;28;19909;-57
2022/08/07 07:51:17;;;;;;;;;;;19.10;99.90;;;;;;5082568;28;19936;-56
2022/08/07 07:53:44;;;;;;;;;;;19.10;99.90;;;;;;5083434;28;20342;-57
2022/08/07 07:56:11;;;;;;;;;;;19.10;99.90;;;;;;5081417;28;19904;-57
2022/08/07 07:58:38;;;;;;;;;;;19.20;99.90;;;;;;5062077;28;20325;-57
2022/08/07 08:01:04;;;;;;;;;;;19.20;99.90;;;;;;5073436;28;19904;-56
2022/08/07 08:03:31;;;;;;;;;;;19.30;99.90;;;;;;5078477;28;20303;-57
2022/08/07 08:05:57;;;;;;;;;;;19.40;99.90;;;;;;5073346;28;20646;-57
2022/08/07 08:08:24;;;;;;;;;;;19.50;99.90;;;;;;5073937;28;19964;-57
2022/08/07 08:10:50;;;;;;;;;;;19.70;99.90;;;;;;5073464;28;19916;-57
2022/08/07 08:13:16;;;;;;;;;;;19.90;99.90;;;;;;5073311;28;19927;-57
2022/08/07 08:15:42;;;;;;;;;;;20.10;99.90;;;;;;5073496;28;19908;-57
2022/08/07 08:18:12;;;;;;;;;;;20.00;99.90;;;;;;5073632;28;19909;-57
2022/08/07 08:20:39;;;;;;;;;;;20.10;99.90;;;;;;5073449;28;19904;-57
2022/08/07 08:28:36;;;;;;;;;;;19.90;99.90;;;;;;5073447;28;20022;-58
2022/08/07 08:31:03;;;;;;;;;;;19.90;99.90;;;;;;5072234;28;19912;-59
2022/08/07 08:33:33;;;;;;;;;;;19.90;99.90;;;;;;5075696;28;19915;-59
2022/08/07 08:35:59;;;;;;;;;;;20.00;99.90;;;;;;5063893;28;19923;-59
2022/08/07 08:38:26;;;;;;;;;;;20.00;99.90;;;;;;5063097;28;19904;-58
2022/08/07 08:40:52;;;;;;;;;;;20.10;99.90;;;;;;5057981;28;19916;-58
2022/08/07 08:43:20;;;;;;;;;;;20.30;99.90;;;;;;5055097;28;19920;-58
2022/08/07 08:45:52;;;;;;;;;;;20.40;99.90;;;;;;5052933;28;19959;-59
2022/08/07 08:48:23;;;;;;;;;;;20.40;99.90;;;;;;5053060;28;20364;-58
2022/08/07 08:50:59;;;;;;;;;;;20.50;99.90;;;;;;5055195;28;19970;-59
2022/08/07 08:53:31;;;;;;;;;;;20.50;99.90;;;;;;5061388;28;19916;-59
2022/08/07 08:56:01;;;;;;;;;;;20.60;99.90;;;;;;5059651;28;20319;-59
2022/08/07 08:58:41;;;;;;;;;;;20.50;99.90;;;;;;5062447;28;19908;-57
2022/08/07 09:01:07;;;;;;;;;;;20.40;99.90;;;;;;5062276;28;20323;-57
2022/08/07 09:03:35;;;;;;;;;;;20.50;99.90;;;;;;5062608;28;20003;-57
2022/08/07 09:06:05;;;;;;;;;;;20.50;99.90;;;;;;5043229;28;20368;-57
2022/08/07 09:08:56;;;;;;;;;;;20.50;99.90;;;;;;5061829;28;19909;-57
2022/08/07 09:11:24;;;;;;;;;;;20.60;99.90;;;;;;5063079;28;19960;-57
2022/08/07 09:14:08;;;;;;;;;;;20.60;99.90;;;;;;5063139;28;19995;-57
2022/08/07 09:16:46;;;;;;;;;;;20.90;99.90;;;;;;5061513;28;20038;-57
2022/08/07 09:19:21;;;;;;;;;;;20.80;99.90;;;;;;5061576;28;19999;-57
2022/08/07 09:21:52;;;;;;;;;;;20.90;99.90;;;;;;5060718;28;19973;-57
2022/08/07 09:24:43;;;;;;;;;;;21.20;99.90;;;;;;5061871;28;19908;-56
2022/08/07 09:27:09;;;;;;;;;;;21.30;99.90;;;;;;5062804;28;19908;-57
2022/08/07 09:29:43;;;;;;;;;;;21.20;99.90;;;;;;5061599;28;19912;-56
2022/08/07 09:32:27;;;;;;;;;;;21.40;99.90;;;;;;5060649;28;19996;-58
2022/08/07 09:34:53;;;;;;;;;;;21.50;99.90;;;;;;5061194;28;20019;-58
2022/08/07 09:37:18;;;;;;;;;;;21.60;99.90;;;;;;5058549;28;20027;-58
2022/08/07 09:40:03;;;;;;;;;;;21.70;99.90;;;;;;5082192;28;19908;-58
2022/08/07 09:42:47;;;;;;;;;;;21.60;99.90;;;;;;5081241;28;19911;-58
2022/08/07 09:45:27;;;;;;;;;;;21.50;99.90;;;;;;5082143;28;19954;-58
2022/08/07 09:48:16;;;;;;;;;;;21.40;99.90;;;;;;5080832;28;19923;-59
2022/08/07 09:50:54;;;;;;;;;;;21.40;99.90;;;;;;5075284;28;19943;-58
2022/08/07 09:53:22;;;;;;;;;;;21.50;99.90;;;;;;5079513;28;20305;-58
2022/08/07 09:56:16;;;;;;;;;;;21.50;99.90;;;;;;5082043;28;19920;-59
2022/08/07 09:59:01;;;;;;;;;;;21.30;99.90;;;;;;5082322;28;20373;-58
2022/08/07 10:01:35;;;;;;;;;;;21.20;99.90;;;;;;5080335;28;20306;-58
2022/08/07 10:04:07;;;;;;;;;;;21.30;99.90;;;;;;5079891;28;19908;-58
2022/08/07 10:06:35;;;;;;;;;;;21.30;99.90;;;;;;5062343;28;19909;-56
2022/08/07 10:09:16;;;;;;;;;;;21.50;99.90;;;;;;5073510;28;19914;-57
2022/08/07 10:11:59;;;;;;;;;;;21.80;99.90;;;;;;5071105;28;19934;-57
2022/08/07 10:14:40;;;;;;;;;;;21.90;99.90;;;;;;5071099;28;19908;-57
2022/08/07 10:17:18;;;;;;;;;;;21.90;99.90;;;;;;5053024;28;20399;-56
2022/08/07 10:20:02;;;;;;;;;;;22.20;99.90;;;;;;5073733;28;19912;-56
2022/08/07 10:22:28;;;;;;;;;;;22.30;99.90;;;;;;5080580;28;20373;-56
2022/08/07 10:25:03;;;;;;;;;;;22.00;99.90;;;;;;5060511;28;19913;-57
2022/08/07 10:27:55;;;;;;;;;;;22.10;99.90;;;;;;5079355;28;19904;-56
2022/08/07 10:30:27;;;;;;;;;;;22.00;99.90;;;;;;5076241;28;20478;-57
2022/08/07 10:33:06;;;;;;;;;;;22.00;99.90;;;;;;5078617;28;19914;-58
2022/08/07 10:35:35;;;;;;;;;;;22.10;99.90;;;;;;5078083;28;19920;-57
2022/08/07 10:38:19;;;;;;;;;;;22.10;99.90;;;;;;5069436;28;19908;-57
2022/08/07 10:41:04;;;;;;;;;;;22.10;99.90;;;;;;5067982;28;20415;-57
2022/08/07 10:43:33;;;;;;;;;;;22.20;99.90;;;;;;5067593;28;19912;-57
2022/08/07 10:46:05;;;;;;;;;;;22.20;99.90;;;;;;5066988;28;19904;-57
2022/08/07 10:48:54;;;;;;;;;;;22.10;99.90;;;;;;5069458;28;19912;-57
2022/08/07 10:51:21;;;;;;;;;;;21.90;99.90;;;;;;5067095;28;19977;-57
2022/08/07 10:53:50;;;;;;;;;;;21.90;99.90;;;;;;5068901;28;19908;-57
2022/08/07 10:56:31;;;;;;;;;;;21.90;99.90;;;;;;5069273;28;19981;-57
2022/08/07 10:59:19;;;;;;;;;;;21.90;99.90;;;;;;5063914;28;19922;-57
2022/08/07 11:02:03;;;;;;;;;;;22.10;99.90;;;;;;5067691;28;19908;-58
2022/08/07 11:04:47;;;;;;;;;;;22.20;99.90;;;;;;5067676;28;19905;-58
2022/08/07 11:07:20;;;;;;;;;;;22.50;99.90;;;;;;5063112;28;19915;-58
2022/08/07 11:09:48;;;;;;;;;;;22.60;99.90;;;;;;5067180;28;19966;-58
2022/08/07 11:12:18;;;;;;;;;;;22.80;99.90;;;;;;5063391;28;20261;-58
2022/08/07 11:14:50;;;;;;;;;;;22.80;99.90;;;;;;5058614;28;20402;-58
2022/08/07 11:17:23;;;;;;;;;;;22.80;99.40;;;;;;5059972;28;19990;-56
2022/08/07 11:19:50;;;;;;;;;;;22.80;99.70;;;;;;5057970;28;19909;-58
2022/08/07 11:22:32;;;;;;;;;;;22.70;97.80;;;;;;5057196;28;19909;-59
2022/08/07 11:24:57;;;;;;;;;;;22.50;96.70;;;;;;5057768;28;19909;-59
2022/08/07 11:27:41;;;;;;;;;;;22.30;97.30;;;;;;5067794;28;19912;-58
2022/08/07 11:30:10;;;;;;;;;;;22.10;97.80;;;;;;5066424;28;19916;-59
2022/08/07 11:32:38;;;;;;;;;;;22.00;97.40;;;;;;5064652;28;19916;-56
2022/08/07 11:35:04;;;;;;;;;;;22.20;99.20;;;;;;5062647;28;20000;-58
2022/08/07 11:37:35;;;;;;;;;;;22.20;97.50;;;;;;5076717;28;19961;-56
2022/08/07 11:40:34;;;;;;;;;;;22.10;97.80;;;;;;5079146;28;19912;-57
2022/08/07 11:43:05;;;;;;;;;;;22.00;97.40;;;;;;5043315;28;19911;-57
2022/08/07 11:45:44;;;;;;;;;;;22.00;98.60;;;;;;5078362;28;20006;-57
2022/08/07 11:48:13;;;;;;;;;;;22.00;98.30;;;;;;5080333;28;19909;-57
2022/08/07 11:50:50;;;;;;;;;;;22.10;99.70;;;;;;5079487;28;20040;-57
2022/08/07 11:53:34;;;;;;;;;;;22.50;99.90;;;;;;5080552;28;20621;-57
2022/08/07 11:56:18;;;;;;;;;;;22.80;96.30;;;;;;5077668;28;19908;-58
2022/08/07 11:59:02;;;;;;;;;;;23.10;95.60;;;;;;5070118;28;19976;-58
2022/08/07 12:01:37;;;;;;;;;;;23.20;93.90;;;;;;5069708;28;20006;-58
2022/08/07 12:04:02;;;;;;;;;;;23.20;96.10;;;;;;5069379;28;19934;-58
2022/08/07 12:06:36;;;;;;;;;;;23.40;94.60;;;;;;5069442;28;19930;-58
2022/08/07 12:09:13;;;;;;;;;;;23.60;93.00;;;;;;5074443;28;19990;-58
2022/08/07 12:11:41;;;;;;;;;;;23.60;94.00;;;;;;5077569;28;20036;-56
2022/08/07 12:14:07;;;;;;;;;;;23.70;92.70;;;;;;5078208;28;19904;-57
2022/08/07 12:16:53;;;;;;;;;;;23.80;91.40;;;;;;5079235;28;20240;-57
2022/08/07 12:19:30;;;;;;;;;;;23.90;91.00;;;;;;5077138;28;19908;-57
2022/08/07 12:22:14;;;;;;;;;;;24.40;90.70;;;;;;5069363;28;19916;-56
2022/08/07 12:27:48;;;;;;;;;;;24.20;94.20;;;;;;5069451;28;19915;-58
2022/08/07 12:30:15;;;;;;;;;;;24.00;90.80;;;;;;5051886;28;20018;-57
2022/08/07 12:32:41;;;;;;;;;;;23.70;91.40;;;;;;5071852;28;20004;-56
2022/08/07 12:35:09;;;;;;;;;;;23.60;91.00;;;;;;5072549;28;19943;-56
2022/08/07 12:37:36;;;;;;;;;;;23.50;92.40;;;;;;5072662;28;19916;-56
2022/08/07 12:40:03;;;;;;;;;;;23.30;90.80;;;;;;5071273;28;20600;-58
2022/08/07 12:42:29;;;;;;;;;;;23.20;91.80;;;;;;5053054;28;19904;-56
2022/08/07 12:44:56;;;;;;;;;;;23.50;91.30;;;;;;5070720;28;19908;-56
2022/08/07 12:47:47;;;;;;;;;;;23.50;92.10;;;;;;5071763;28;20508;-56
2022/08/07 12:50:49;;;;;;;;;;;23.50;92.00;;;;;;5053613;28;20317;-56
2022/08/07 12:53:14;;;;;;;;;;;23.70;94.10;;;;;;4989463;28;19909;-56
2022/08/07 12:55:42;;;;;;;;;;;23.90;90.40;;;;;;5054377;28;19911;-56
2022/08/07 12:58:10;;;;;;;;;;;24.10;92.50;;;;;;5072541;28;19991;-56
2022/08/07 13:00:44;;;;;;;;;;;24.30;88.00;;;;;;5072741;28;20290;-56
2022/08/07 13:03:29;;;;;;;;;;;24.40;90.70;;;;;;5072385;28;19911;-56
2022/08/07 13:06:05;;;;;;;;;;;24.50;91.70;;;;;;5072045;28;20007;-56
2022/08/07 13:08:31;;;;;;;;;;;24.90;90.40;;;;;;5072662;28;20011;-55
2022/08/07 13:11:15;;;;;;;;;;;25.30;92.40;;;;;;5072405;28;19961;-56
2022/08/07 13:13:50;;;;;;;;;;;25.20;80.60;;;;;;5072534;28;20355;-55
2022/08/07 13:16:27;;;;;;;;;;;25.30;83.30;;;;;;5072111;28;19913;-56
2022/08/07 13:18:59;;;;;;;;;;;24.90;84.40;;;;;;5072534;28;19915;-56
2022/08/07 13:21:30;;;;;;;;;;;24.60;82.30;;;;;;5072210;28;20362;-55
2022/08/07 13:24:14;;;;;;;;;;;24.40;85.40;;;;;;5072125;28;19912;-57
2022/08/07 13:26:58;;;;;;;;;;;24.50;86.20;;;;;;5071822;28;19904;-56
2022/08/07 13:29:39;;;;;;;;;;;24.30;84.90;;;;;;5072049;28;19923;-57
2022/08/07 13:32:14;;;;;;;;;;;24.20;85.10;;;;;;5072190;28;19911;-57
2022/08/07 13:34:45;;;;;;;;;;;24.10;82.20;;;;;;5071853;28;19957;-58
2022/08/07 13:37:40;;;;;;;;;;;24.00;84.40;;;;;;5071866;28;19931;-57
2022/08/07 13:40:25;;;;;;;;;;;24.40;84.80;;;;;;4999842;28;20563;-56
2022/08/07 13:42:53;;;;;;;;;;;24.70;82.90;;;;;;5071765;28;20355;-55
2022/08/07 13:45:19;;;;;;;;;;;24.70;79.90;;;;;;5071539;28;19931;-55
2022/08/07 13:47:46;;;;;;;;;;;25.20;86.00;;;;;;5071724;28;19908;-57
2022/08/07 13:50:12;;;;;;;;;;;25.20;82.70;;;;;;5071557;28;19917;-57
2022/08/07 13:52:40;;;;;;;;;;;25.10;79.60;;;;;;5071591;28;19912;-56
2022/08/07 13:55:16;;;;;;;;;;;25.30;82.40;;;;;;5053305;28;19908;-55
2022/08/07 13:57:43;;;;;;;;;;;25.80;81.00;;;;;;5071469;28;19916;-56
2022/08/07 14:00:09;;;;;;;;;;;25.60;77.60;;;;;;5071655;28;19908;-57
2022/08/07 14:02:36;;;;;;;;;;;25.30;74.80;;;;;;5071545;28;19904;-57
2022/08/07 14:05:04;;;;;;;;;;;25.20;74.80;;;;;;5071405;28;19911;-58
2022/08/07 14:07:31;;;;;;;;;;;25.30;77.70;;;;;;5071237;28;20466;-56
2022/08/07 14:09:58;;;;;;;;;;;25.10;75.20;;;;;;5071372;28;19920;-57
2022/08/07 14:12:32;;;;;;;;;;;24.80;76.20;;;;;;5071424;28;19912;-56
2022/08/07 14:15:00;;;;;;;;;;;24.60;72.20;;;;;;5071380;28;19916;-56
2022/08/07 14:17:28;;;;;;;;;;;24.60;81.30;;;;;;5071089;28;20300;-57
2022/08/07 14:19:59;;;;;;;;;;;24.50;79.50;;;;;;5071361;28;19916;-57
2022/08/07 14:22:27;;;;;;;;;;;24.50;79.10;;;;;;5070889;28;19904;-57
2022/08/07 14:25:00;;;;;;;;;;;24.40;77.50;;;;;;5070989;28;19915;-56
2022/08/07 14:27:30;;;;;;;;;;;24.40;78.20;;;;;;5071193;28;19908;-56
2022/08/07 14:30:00;;;;;;;;;;;24.10;79.60;;;;;;5071456;28;19916;-56
2022/08/07 14:32:28;;;;;;;;;;;24.00;80.80;;;;;;5071056;28;19908;-56
2022/08/07 14:34:54;;;;;;;;;;;24.00;80.50;;;;;;5078302;28;19934;-56
2022/08/07 14:37:20;;;;;;;;;;;23.90;78.90;;;;;;5074629;28;20544;-56
2022/08/07 14:39:47;;;;;;;;;;;23.80;79.30;;;;;;5071067;28;19951;-56
2022/08/07 14:42:13;;;;;;;;;;;23.70;85.90;;;;;;5070498;28;19915;-56